sensor_id;sensor_type;location;lat;lon;timestamp;pressure;altitude;pressure_sealevel;temperature;humidity
40850;BME280;26571;41.610;25.380;2023-03-03T00:01:06;98524.00;;;6.51;100.00
40850;BME280;26571;41.610;25.380;2023-03-03T00:03:32;98522.66;;;6.47;100.00
40850;BME280;26571;41.610;25.380;2023-03-03T00:05:58;98520.72;;;6.39;99.90
40850;BME280;26571;41.610;25.380;2023-03-03T00:08:25;98524.97;;;6.50;99.46
40850;BME280;26571;41.610;25.380;2023-03-03T00:10:51;98516.47;;;6.58;99.94
40850;BME280;26571;41.610;25.380;2023-03-03T00:13:23;98514.66;;;6.58;99.40
40850;BME280;26571;41.610;25.380;2023-03-03T00:15:49;98498.84;;;6.50;99.02
40850;BME280;26571;41.610;25.380;2023-03-03T00:20:54;98510.50;;;6.65;98.86
40850;BME280;26571;41.610;25.380;2023-03-03T00:23:36;98511.22;;;6.67;98.83
40850;BME280;26571;41.610;25.380;2023-03-03T00:26:03;98491.28;;;6.47;98.81
40850;BME280;26571;41.610;25.380;2023-03-03T00:28:52;98503.91;;;6.61;97.82
40850;BME280;26571;41.610;25.380;2023-03-03T00:31:32;98506.00;;;6.67;98.04
40850;BME280;26571;41.610;25.380;2023-03-03T00:34:18;98504.47;;;6.65;97.84
40850;BME280;26571;41.610;25.380;2023-03-03T00:36:48;98498.69;;;6.61;97.90
40850;BME280;26571;41.610;25.380;2023-03-03T00:39:34;98488.94;;;6.54;98.39
40850;BME280;26571;41.610;25.380;2023-03-03T00:42:00;98495.13;;;6.53;98.60
40850;BME280;26571;41.610;25.380;2023-03-03T00:44:55;98489.59;;;6.56;98.68
40850;BME280;26571;41.610;25.380;2023-03-03T00:49:51;98492.09;;;6.57;97.85
40850;BME280;26571;41.610;25.380;2023-03-03T00:52:17;98486.31;;;6.54;98.63
40850;BME280;26571;41.610;25.380;2023-03-03T00:54:44;98479.44;;;6.43;98.21
40850;BME280;26571;41.610;25.380;2023-03-03T00:57:10;98480.25;;;6.53;98.08
40850;BME280;26571;41.610;25.380;2023-03-03T00:59:39;98492.09;;;6.57;98.33
40850;BME280;26571;41.610;25.380;2023-03-03T01:02:04;98472.00;;;6.38;97.68
40850;BME280;26571;41.610;25.380;2023-03-03T01:04:30;98487.13;;;6.54;98.44
40850;BME280;26571;41.610;25.380;2023-03-03T01:06:56;98485.75;;;6.50;98.33
40850;BME280;26571;41.610;25.380;2023-03-03T01:09:22;98487.56;;;6.50;98.01
40850;BME280;26571;41.610;25.380;2023-03-03T01:11:48;98493.19;;;6.55;98.51
40850;BME280;26571;41.610;25.380;2023-03-03T01:14:14;98485.75;;;6.50;98.39
40850;BME280;26571;41.610;25.380;2023-03-03T01:16:39;98478.63;;;6.52;97.82
40850;BME280;26571;41.610;25.380;2023-03-03T01:19:06;98489.59;;;6.56;98.07
40850;BME280;26571;41.610;25.380;2023-03-03T01:21:32;98486.16;;;6.55;98.17
40850;BME280;26571;41.610;25.380;2023-03-03T01:23:57;98489.06;;;6.52;98.40
40850;BME280;26571;41.610;25.380;2023-03-03T01:26:23;98485.19;;;6.56;98.56
40850;BME280;26571;41.610;25.380;2023-03-03T01:28:48;98485.91;;;6.58;97.79
40850;BME280;26571;41.610;25.380;2023-03-03T01:31:14;98483.56;;;6.55;98.49
40850;BME280;26571;41.610;25.380;2023-03-03T01:33:39;98483.28;;;6.58;98.18
40850;BME280;26571;41.610;25.380;2023-03-03T01:36:05;98489.91;;;6.53;98.36
40850;BME280;26571;41.610;25.380;2023-03-03T01:38:34;98491.00;;;6.50;98.34
40850;BME280;26571;41.610;25.380;2023-03-03T01:41:00;98492.22;;;6.56;98.11
40850;BME280;26571;41.610;25.380;2023-03-03T01:43:27;98499.53;;;6.52;97.83
40850;BME280;26571;41.610;25.380;2023-03-03T01:50:51;98485.19;;;6.56;97.82
40850;BME280;26571;41.610;25.380;2023-03-03T01:53:22;98485.91;;;6.58;98.37
40850;BME280;26571;41.610;25.380;2023-03-03T01:55:53;98489.06;;;6.62;98.35
40850;BME280;26571;41.610;25.380;2023-03-03T01:58:28;98466.47;;;6.51;97.92
40850;BME280;26571;41.610;25.380;2023-03-03T02:00:58;98484.50;;;6.64;98.35
40850;BME280;26571;41.610;25.380;2023-03-03T02:03:24;98468.16;;;6.52;97.90
40850;BME280;26571;41.610;25.380;2023-03-03T02:05:53;98481.63;;;6.67;97.41
40850;BME280;26571;41.610;25.380;2023-03-03T02:08:22;98479.13;;;6.65;97.44
40850;BME280;26571;41.610;25.380;2023-03-03T02:10:50;98470.59;;;6.63;97.65
40850;BME280;26571;41.610;25.380;2023-03-03T02:13:16;98435.97;;;6.42;97.49
40850;BME280;26571;41.610;25.380;2023-03-03T02:15:41;98485.47;;;6.63;97.25
40850;BME280;26571;41.610;25.380;2023-03-03T02:18:18;98471.97;;;6.67;96.87
40850;BME280;26571;41.610;25.380;2023-03-03T02:23:26;98460.97;;;6.64;97.46
40850;BME280;26571;41.610;25.380;2023-03-03T02:28:25;98469.78;;;6.63;97.48
40850;BME280;26571;41.610;25.380;2023-03-03T02:30:57;98479.44;;;6.62;97.04
40850;BME280;26571;41.610;25.380;2023-03-03T02:33:23;98476.41;;;6.67;97.34
40850;BME280;26571;41.610;25.380;2023-03-03T02:35:49;98475.13;;;6.61;97.11
40850;BME280;26571;41.610;25.380;2023-03-03T02:38:33;98474.59;;;6.67;97.85
40850;BME280;26571;41.610;25.380;2023-03-03T02:43:35;98471.16;;;6.67;97.45
40850;BME280;26571;41.610;25.380;2023-03-03T02:46:01;98468.13;;;6.71;97.26
40850;BME280;26571;41.610;25.380;2023-03-03T02:48:26;98466.19;;;6.73;96.64
40850;BME280;26571;41.610;25.380;2023-03-03T02:50:52;98474.03;;;6.73;96.08
40850;BME280;26571;41.610;25.380;2023-03-03T02:53:17;98471.84;;;6.69;96.94
40850;BME280;26571;41.610;25.380;2023-03-03T02:55:43;98468.41;;;6.68;97.20
40850;BME280;26571;41.610;25.380;2023-03-03T02:58:08;98456.97;;;6.69;97.04
40850;BME280;26571;41.610;25.380;2023-03-03T03:00:33;98464.81;;;6.69;96.97
40850;BME280;26571;41.610;25.380;2023-03-03T03:02:59;98465.50;;;6.71;96.61
40850;BME280;26571;41.610;25.380;2023-03-03T03:05:24;98468.13;;;6.71;96.56
40850;BME280;26571;41.610;25.380;2023-03-03T03:07:50;98455.59;;;6.65;96.93
40850;BME280;26571;41.610;25.380;2023-03-03T03:10:15;98460.94;;;6.73;96.71
40850;BME280;26571;41.610;25.380;2023-03-03T03:12:41;98459.31;;;6.72;97.04
40850;BME280;26571;41.610;25.380;2023-03-03T03:15:07;98454.06;;;6.72;96.87
40850;BME280;26571;41.610;25.380;2023-03-03T03:17:38;98457.22;;;6.76;96.57
40850;BME280;26571;41.610;25.380;2023-03-03T03:20:04;98456.38;;;6.76;97.18
40850;BME280;26571;41.610;25.380;2023-03-03T03:22:29;98453.50;;;6.79;96.66
40850;BME280;26571;41.610;25.380;2023-03-03T03:24:54;98451.56;;;6.81;96.97
40850;BME280;26571;41.610;25.380;2023-03-03T03:27:20;98431.22;;;6.65;97.04
40850;BME280;26571;41.610;25.380;2023-03-03T03:29:47;98438.97;;;6.57;96.96
40850;BME280;26571;41.610;25.380;2023-03-03T03:32:13;98452.28;;;6.73;97.50
40850;BME280;26571;41.610;25.380;2023-03-03T03:34:38;98459.56;;;6.69;97.36
40850;BME280;26571;41.610;25.380;2023-03-03T03:37:03;98442.91;;;6.70;97.20
40850;BME280;26571;41.610;25.380;2023-03-03T03:39:29;98441.66;;;6.74;97.08
40850;BME280;26571;41.610;25.380;2023-03-03T03:41:54;98421.91;;;6.53;97.58
40850;BME280;26571;41.610;25.380;2023-03-03T03:44:20;98455.97;;;6.70;97.18
40850;BME280;26571;41.610;25.380;2023-03-03T03:46:45;98441.97;;;6.71;97.45
40850;BME280;26571;41.610;25.380;2023-03-03T03:49:10;98441.97;;;6.71;97.38
40850;BME280;26571;41.610;25.380;2023-03-03T03:51:36;98444.44;;;6.73;97.00
40850;BME280;26571;41.610;25.380;2023-03-03T03:54:05;98442.91;;;6.70;97.08
40850;BME280;26571;41.610;25.380;2023-03-03T03:56:30;98443.22;;;6.67;97.32
40850;BME280;26571;41.610;25.380;2023-03-03T03:58:56;98447.75;;;6.65;97.86
40850;BME280;26571;41.610;25.380;2023-03-03T04:01:21;98436.44;;;6.74;96.84
40850;BME280;26571;41.610;25.380;2023-03-03T04:03:47;98436.72;;;6.71;97.16
40850;BME280;26571;41.610;25.380;2023-03-03T04:06:13;98431.22;;;6.65;97.21
40850;BME280;26571;41.610;25.380;2023-03-03T04:08:38;98432.75;;;6.67;96.56
40850;BME280;26571;41.610;25.380;2023-03-03T04:11:04;98438.81;;;6.68;97.12
40850;BME280;26571;41.610;25.380;2023-03-03T04:13:29;98433.16;;;6.72;97.15
40850;BME280;26571;41.610;25.380;2023-03-03T04:15:56;98381.72;;;6.44;97.05
40850;BME280;26571;41.610;25.380;2023-03-03T04:18:21;98408.94;;;6.51;97.28
40850;BME280;26571;41.610;25.380;2023-03-03T04:20:47;98441.97;;;6.71;96.76
40850;BME280;26571;41.610;25.380;2023-03-03T04:23:12;98438.06;;;6.76;96.51
40850;BME280;26571;41.610;25.380;2023-03-03T04:25:39;98437.69;;;6.70;96.71
40850;BME280;26571;41.610;25.380;2023-03-03T04:28:04;98437.56;;;6.72;96.59
40850;BME280;26571;41.610;25.380;2023-03-03T04:30:30;98440.84;;;6.74;96.85
40850;BME280;26571;41.610;25.380;2023-03-03T04:32:55;98439.34;;;6.71;96.57
40850;BME280;26571;41.610;25.380;2023-03-03T04:35:21;98440.59;;;6.67;96.73
40850;BME280;26571;41.610;25.380;2023-03-03T04:37:46;98440.44;;;6.69;96.47
40850;BME280;26571;41.610;25.380;2023-03-03T04:40:12;98438.38;;;6.72;96.42
40850;BME280;26571;41.610;25.380;2023-03-03T04:42:37;98440.88;;;6.64;96.56
40850;BME280;26571;41.610;25.380;2023-03-03T04:45:04;98430.41;;;6.64;96.58
40850;BME280;26571;41.610;25.380;2023-03-03T04:47:30;98445.81;;;6.67;96.42
40850;BME280;26571;41.610;25.380;2023-03-03T04:49:56;98427.94;;;6.53;96.89
40850;BME280;26571;41.610;25.380;2023-03-03T04:52:22;98441.84;;;6.63;97.00
40850;BME280;26571;41.610;25.380;2023-03-03T04:54:47;98444.31;;;6.65;96.95
40850;BME280;26571;41.610;25.380;2023-03-03T04:57:12;98429.44;;;6.56;97.10
40850;BME280;26571;41.610;25.380;2023-03-03T04:59:38;98442.38;;;6.67;97.18
40850;BME280;26571;41.610;25.380;2023-03-03T05:02:03;98444.44;;;6.63;97.18
40850;BME280;26571;41.610;25.380;2023-03-03T05:04:29;98443.72;;;6.71;97.01
40850;BME280;26571;41.610;25.380;2023-03-03T05:06:55;98447.47;;;6.68;96.96
40850;BME280;26571;41.610;25.380;2023-03-03T05:09:21;98440.16;;;6.72;96.88
40850;BME280;26571;41.610;25.380;2023-03-03T05:11:47;98441.41;;;6.68;97.30
40850;BME280;26571;41.610;25.380;2023-03-03T05:14:12;98443.88;;;6.69;97.17
40850;BME280;26571;41.610;25.380;2023-03-03T05:16:38;98447.47;;;6.68;97.08
40850;BME280;26571;41.610;25.380;2023-03-03T05:19:03;98449.94;;;6.70;97.30
40850;BME280;26571;41.610;25.380;2023-03-03T05:21:28;98455.16;;;6.70;97.41
40850;BME280;26571;41.610;25.380;2023-03-03T05:23:54;98449.13;;;6.69;97.29
40850;BME280;26571;41.610;25.380;2023-03-03T05:26:19;98452.69;;;6.68;96.94
40850;BME280;26571;41.610;25.380;2023-03-03T05:28:45;98433.19;;;6.53;97.44
40850;BME280;26571;41.610;25.380;2023-03-03T05:31:10;98447.31;;;6.70;97.19
40850;BME280;26571;41.610;25.380;2023-03-03T05:33:35;98434.13;;;6.62;97.30
40850;BME280;26571;41.610;25.380;2023-03-03T05:36:01;98448.03;;;6.72;97.60
40850;BME280;26571;41.610;25.380;2023-03-03T05:38:26;98450.63;;;6.72;97.19
40850;BME280;26571;41.610;25.380;2023-03-03T05:40:52;98450.34;;;6.75;97.42
40850;BME280;26571;41.610;25.380;2023-03-03T05:43:18;98462.59;;;6.74;96.65
40850;BME280;26571;41.610;25.380;2023-03-03T05:45:44;98434.41;;;6.59;97.39
40850;BME280;26571;41.610;25.380;2023-03-03T05:48:09;98450.47;;;6.73;97.35
40850;BME280;26571;41.610;25.380;2023-03-03T05:50:36;98448.84;;;6.72;97.70
40850;BME280;26571;41.610;25.380;2023-03-03T05:53:02;98456.28;;;6.67;98.51
40850;BME280;26571;41.610;25.380;2023-03-03T05:55:28;98454.06;;;6.72;98.57
40850;BME280;26571;41.610;25.380;2023-03-03T05:57:53;98461.78;;;6.74;98.64
40850;BME280;26571;41.610;25.380;2023-03-03T06:00:19;98359.22;;;6.14;98.68
40850;BME280;26571;41.610;25.380;2023-03-03T06:02:45;98439.75;;;6.77;98.16
40850;BME280;26571;41.610;25.380;2023-03-03T06:05:10;98450.06;;;6.78;98.71
40850;BME280;26571;41.610;25.380;2023-03-03T06:07:36;98432.31;;;6.72;98.31
40850;BME280;26571;41.610;25.380;2023-03-03T06:10:03;98454.88;;;6.83;98.25
40850;BME280;26571;41.610;25.380;2023-03-03T06:12:28;98436.16;;;6.78;98.31
40850;BME280;26571;41.610;25.380;2023-03-03T06:14:54;98451.84;;;6.87;98.53
40850;BME280;26571;41.610;25.380;2023-03-03T06:17:19;98447.13;;;6.91;98.46
40850;BME280;26571;41.610;25.380;2023-03-03T06:19:45;98444.66;;;6.89;98.07
40850;BME280;26571;41.610;25.380;2023-03-03T06:22:12;98442.63;;;6.83;98.93
40850;BME280;26571;41.610;25.380;2023-03-03T06:24:37;98448.78;;;6.92;99.21
40850;BME280;26571;41.610;25.380;2023-03-03T06:27:02;98448.50;;;6.95;98.05
40850;BME280;26571;41.610;25.380;2023-03-03T06:29:28;98446.41;;;6.98;98.02
40850;BME280;26571;41.610;25.380;2023-03-03T06:31:53;98449.03;;;6.98;98.39
40850;BME280;26571;41.610;25.380;2023-03-03T06:34:19;98453.44;;;6.98;98.15
40850;BME280;26571;41.610;25.380;2023-03-03T06:36:45;98457.59;;;6.91;98.96
40850;BME280;26571;41.610;25.380;2023-03-03T06:39:10;98461.19;;;6.90;98.21
40850;BME280;26571;41.610;25.380;2023-03-03T06:41:36;98461.72;;;6.93;98.91
40850;BME280;26571;41.610;25.380;2023-03-03T06:44:02;98453.44;;;6.98;97.97
40850;BME280;26571;41.610;25.380;2023-03-03T06:46:27;98470.22;;;7.05;98.42
40850;BME280;26571;41.610;25.380;2023-03-03T06:48:53;98455.09;;;6.99;98.01
40850;BME280;26571;41.610;25.380;2023-03-03T06:51:22;98454.13;;;7.00;99.03
40850;BME280;26571;41.610;25.380;2023-03-03T06:53:54;98417.72;;;6.69;98.99
40850;BME280;26571;41.610;25.380;2023-03-03T06:56:20;98464.44;;;7.11;98.64
40850;BME280;26571;41.610;25.380;2023-03-03T06:58:46;98454.22;;;7.08;98.48
40850;BME280;26571;41.610;25.380;2023-03-03T07:01:15;98433.91;;;6.92;97.89
40850;BME280;26571;41.610;25.380;2023-03-03T07:03:41;98465.75;;;7.15;98.39
40850;BME280;26571;41.610;25.380;2023-03-03T07:06:19;98465.50;;;7.18;98.40
40850;BME280;26571;41.610;25.380;2023-03-03T07:08:46;98460.25;;;7.18;97.05
40850;BME280;26571;41.610;25.380;2023-03-03T07:11:16;98461.66;;;7.13;97.24
40850;BME280;26571;41.610;25.380;2023-03-03T07:13:53;98439.13;;;7.02;97.23
40850;BME280;26571;41.610;25.380;2023-03-03T07:16:24;98455.59;;;7.12;97.20
40850;BME280;26571;41.610;25.380;2023-03-03T07:18:54;98457.25;;;7.13;97.14
40850;BME280;26571;41.610;25.380;2023-03-03T07:21:34;98424.94;;;6.95;97.06
40850;BME280;26571;41.610;25.380;2023-03-03T07:24:12;98456.97;;;7.16;97.62
40850;BME280;26571;41.610;25.380;2023-03-03T07:26:42;98458.50;;;7.09;97.50
40850;BME280;26571;41.610;25.380;2023-03-03T07:29:27;98458.72;;;7.16;98.29
40850;BME280;26571;41.610;25.380;2023-03-03T07:31:56;98453.97;;;7.11;97.56
40850;BME280;26571;41.610;25.380;2023-03-03T07:34:24;98460.84;;;7.12;97.49
40850;BME280;26571;41.610;25.380;2023-03-03T07:36:57;98462.25;;;7.07;97.43
40850;BME280;26571;41.610;25.380;2023-03-03T07:39:33;98463.66;;;6.91;97.13
40850;BME280;26571;41.610;25.380;2023-03-03T07:44:39;98464.50;;;6.82;99.08
40850;BME280;26571;41.610;25.380;2023-03-03T07:47:30;98464.53;;;6.72;99.30
40850;BME280;26571;41.610;25.380;2023-03-03T07:50:17;98468.13;;;6.71;100.00
40850;BME280;26571;41.610;25.380;2023-03-03T07:52:56;98473.91;;;6.65;100.00
40850;BME280;26571;41.610;25.380;2023-03-03T07:55:33;98463.44;;;6.56;100.00
40850;BME280;26571;41.610;25.380;2023-03-03T08:03:42;98423.28;;;6.47;100.00
40850;BME280;26571;41.610;25.380;2023-03-03T08:11:33;98453.22;;;6.82;100.00
40850;BME280;26571;41.610;25.380;2023-03-03T08:14:00;98454.28;;;6.89;100.00
40850;BME280;26571;41.610;25.380;2023-03-03T08:16:44;98443.59;;;6.72;100.00
40850;BME280;26571;41.610;25.380;2023-03-03T08:19:10;98459.00;;;6.76;100.00
40850;BME280;26571;41.610;25.380;2023-03-03T08:21:37;98439.78;;;6.57;100.00
40850;BME280;26571;41.610;25.380;2023-03-03T08:24:03;98445.91;;;6.76;100.00
40850;BME280;26571;41.610;25.380;2023-03-03T08:26:29;98448.13;;;6.80;100.00
40850;BME280;26571;41.610;25.380;2023-03-03T08:28:54;98449.22;;;6.87;100.00
40850;BME280;26571;41.610;25.380;2023-03-03T08:31:20;98443.56;;;6.92;100.00
40850;BME280;26571;41.610;25.380;2023-03-03T08:33:46;98437.34;;;6.93;100.00
40850;BME280;26571;41.610;25.380;2023-03-03T08:36:12;98443.00;;;6.88;100.00
40850;BME280;26571;41.610;25.380;2023-03-03T08:38:39;98392.84;;;6.56;100.00
40850;BME280;26571;41.610;25.380;2023-03-03T08:41:05;98433.88;;;7.02;100.00
40850;BME280;26571;41.610;25.380;2023-03-03T08:43:30;98429.50;;;6.93;100.00
40850;BME280;26571;41.610;25.380;2023-03-03T08:45:59;98429.19;;;6.96;100.00
40850;BME280;26571;41.610;25.380;2023-03-03T08:48:26;98436.22;;;6.95;100.00
40850;BME280;26571;41.610;25.380;2023-03-03T08:50:51;98430.28;;;7.03;100.00
40850;BME280;26571;41.610;25.380;2023-03-03T08:53:18;98428.66;;;7.02;100.00
40850;BME280;26571;41.610;25.380;2023-03-03T08:55:45;98435.53;;;7.03;100.00
40850;BME280;26571;41.610;25.380;2023-03-03T08:58:10;98431.53;;;6.99;100.00
40850;BME280;26571;41.610;25.380;2023-03-03T09:00:36;98432.66;;;6.96;99.57
40850;BME280;26571;41.610;25.380;2023-03-03T09:03:03;98441.88;;;6.91;99.66
40850;BME280;26571;41.610;25.380;2023-03-03T09:05:29;98437.50;;;6.91;99.63
40850;BME280;26571;41.610;25.380;2023-03-03T09:07:56;98439.19;;;6.73;99.14
40850;BME280;26571;41.610;25.380;2023-03-03T09:10:23;98442.47;;;6.75;98.71
40850;BME280;26571;41.610;25.380;2023-03-03T09:12:54;98434.66;;;6.65;98.28
40850;BME280;26571;41.610;25.380;2023-03-03T09:15:31;98435.91;;;6.61;98.07
40850;BME280;26571;41.610;25.380;2023-03-03T09:20:55;98432.34;;;6.62;98.03
40850;BME280;26571;41.610;25.380;2023-03-03T09:28:44;98432.72;;;6.77;100.00
40850;BME280;26571;41.610;25.380;2023-03-03T09:31:41;98429.38;;;6.85;99.80
40850;BME280;26571;41.610;25.380;2023-03-03T09:37:25;98443.38;;;7.03;98.62
40850;BME280;26571;41.610;25.380;2023-03-03T09:39:53;98427.28;;;7.25;97.85
40850;BME280;26571;41.610;25.380;2023-03-03T09:42:51;98431.63;;;7.17;91.55
40850;BME280;26571;41.610;25.380;2023-03-03T09:51:01;98434.94;;;7.09;92.27
40850;BME280;26571;41.610;25.380;2023-03-03T09:53:54;98434.44;;;6.96;93.78
40850;BME280;26571;41.610;25.380;2023-03-03T10:08:01;98439.59;;;7.15;92.26
40850;BME280;26571;41.610;25.380;2023-03-03T10:10:39;98451.72;;;7.16;92.08
40850;BME280;26571;41.610;25.380;2023-03-03T10:21:28;98435.63;;;7.11;89.04
40850;BME280;26571;41.610;25.380;2023-03-03T10:40:48;98407.78;;;6.83;89.60
40850;BME280;26571;41.610;25.380;2023-03-03T10:46:18;98388.94;;;6.69;91.83
40850;BME280;26571;41.610;25.380;2023-03-03T10:57:09;98396.56;;;7.28;94.47
40850;BME280;26571;41.610;25.380;2023-03-03T11:03:08;98383.81;;;7.78;93.02
40850;BME280;26571;41.610;25.380;2023-03-03T11:05:58;98383.66;;;7.97;90.31
40850;BME280;26571;41.610;25.380;2023-03-03T11:08:40;98377.28;;;8.00;88.35
40850;BME280;26571;41.610;25.380;2023-03-03T11:35:43;98357.19;;;9.29;81.27
40850;BME280;26571;41.610;25.380;2023-03-03T11:38:44;98338.00;;;9.28;80.28
40850;BME280;26571;41.610;25.380;2023-03-03T11:46:44;98309.78;;;9.30;82.66
40850;BME280;26571;41.610;25.380;2023-03-03T11:49:23;98332.47;;;9.64;82.89
40850;BME280;26571;41.610;25.380;2023-03-03T11:51:58;98329.19;;;9.62;78.73
40850;BME280;26571;41.610;25.380;2023-03-03T11:59:47;98322.25;;;9.20;81.76
40850;BME280;26571;41.610;25.380;2023-03-03T12:10:26;98309.06;;;9.12;83.60
40850;BME280;26571;41.610;25.380;2023-03-03T12:23:56;98309.97;;;8.95;82.83
40850;BME280;26571;41.610;25.380;2023-03-03T12:30:05;98285.31;;;8.79;83.38
40850;BME280;26571;41.610;25.380;2023-03-03T12:32:27;98305.28;;;9.06;82.87
40850;BME280;26571;41.610;25.380;2023-03-03T12:35:09;98303.75;;;8.88;82.68
40850;BME280;26571;41.610;25.380;2023-03-03T12:37:47;98300.47;;;8.86;84.15
40850;BME280;26571;41.610;25.380;2023-03-03T12:48:07;98296.22;;;8.93;81.61
40850;BME280;26571;41.610;25.380;2023-03-03T12:50:42;98299.19;;;8.98;82.34
40850;BME280;26571;41.610;25.380;2023-03-03T12:56:12;98240.06;;;8.77;82.79
40850;BME280;26571;41.610;25.380;2023-03-03T12:58:59;98302.25;;;9.36;83.47
40850;BME280;26571;41.610;25.380;2023-03-03T13:07:18;98287.41;;;9.18;78.42
40850;BME280;26571;41.610;25.380;2023-03-03T13:15:22;98278.44;;;8.78;82.88
40850;BME280;26571;41.610;25.380;2023-03-03T13:31:20;98270.38;;;9.39;81.09
40850;BME280;26571;41.610;25.380;2023-03-03T13:33:54;98272.00;;;9.40;82.82
40850;BME280;26571;41.610;25.380;2023-03-03T13:36:25;98272.34;;;9.53;84.08
40850;BME280;26571;41.610;25.380;2023-03-03T13:38:55;98275.31;;;9.66;84.50
40850;BME280;26571;41.610;25.380;2023-03-03T13:44:08;98276.31;;;9.81;84.27
40850;BME280;26571;41.610;25.380;2023-03-03T13:52:20;98291.06;;;9.74;80.61
40850;BME280;26571;41.610;25.380;2023-03-03T13:54:50;98280.75;;;9.65;82.21
40850;BME280;26571;41.610;25.380;2023-03-03T14:05:45;98265.59;;;9.26;81.92
40850;BME280;26571;41.610;25.380;2023-03-03T14:16:42;98231.28;;;9.11;81.65
40850;BME280;26571;41.610;25.380;2023-03-03T14:19:25;98259.03;;;9.22;81.00
40850;BME280;26571;41.610;25.380;2023-03-03T14:22:25;98261.47;;;9.23;84.53
40850;BME280;26571;41.610;25.380;2023-03-03T14:30:44;98257.25;;;9.30;85.47
40850;BME280;26571;41.610;25.380;2023-03-03T14:35:43;98237.19;;;9.21;86.15
40850;BME280;26571;41.610;25.380;2023-03-03T14:38:15;98256.91;;;9.33;86.48
40850;BME280;26571;41.610;25.380;2023-03-03T14:40:44;98245.06;;;9.29;86.21
40850;BME280;26571;41.610;25.380;2023-03-03T14:45:52;98252.63;;;9.32;85.59
40850;BME280;26571;41.610;25.380;2023-03-03T14:48:19;98253.13;;;9.28;85.33
40850;BME280;26571;41.610;25.380;2023-03-03T14:50:55;98250.66;;;9.26;85.61
40850;BME280;26571;41.610;25.380;2023-03-03T14:53:35;98258.22;;;9.21;85.18
40850;BME280;26571;41.610;25.380;2023-03-03T14:56:21;98257.69;;;9.18;85.86
40850;BME280;26571;41.610;25.380;2023-03-03T14:58:48;98261.16;;;9.18;85.04
40850;BME280;26571;41.610;25.380;2023-03-03T15:01:27;98256.22;;;9.07;86.08
40850;BME280;26571;41.610;25.380;2023-03-03T15:04:03;98268.34;;;9.08;85.54
40850;BME280;26571;41.610;25.380;2023-03-03T15:11:53;98265.34;;;8.95;87.25
40850;BME280;26571;41.610;25.380;2023-03-03T15:14:26;98267.50;;;8.91;87.49
40850;BME280;26571;41.610;25.380;2023-03-03T15:16:56;98271.59;;;8.94;88.22
40850;BME280;26571;41.610;25.380;2023-03-03T15:28:24;98275.84;;;8.87;88.83
40850;BME280;26571;41.610;25.380;2023-03-03T15:39:15;98276.31;;;8.82;90.00
40850;BME280;26571;41.610;25.380;2023-03-03T15:44:55;98269.88;;;8.68;89.40
40850;BME280;26571;41.610;25.380;2023-03-03T16:01:32;98283.59;;;8.54;91.83
40850;BME280;26571;41.610;25.380;2023-03-03T16:04:13;98285.22;;;8.55;92.65
40850;BME280;26571;41.610;25.380;2023-03-03T16:12:21;98297.22;;;8.58;93.32
40850;BME280;26571;41.610;25.380;2023-03-03T16:15:04;98304.91;;;8.59;93.54
40850;BME280;26571;41.610;25.380;2023-03-03T16:17:38;98301.66;;;8.57;93.05
40850;BME280;26571;41.610;25.380;2023-03-03T16:20:22;98301.66;;;8.57;93.56
40850;BME280;26571;41.610;25.380;2023-03-03T16:28:18;98308.22;;;8.61;92.84
40850;BME280;26571;41.610;25.380;2023-03-03T16:33:52;98321.59;;;8.50;92.54
40850;BME280;26571;41.610;25.380;2023-03-03T16:39:11;98322.28;;;8.52;91.55
40850;BME280;26571;41.610;25.380;2023-03-03T16:41:56;98322.56;;;8.41;92.62
40850;BME280;26571;41.610;25.380;2023-03-03T16:47:43;98332.09;;;8.50;92.76
40850;BME280;26571;41.610;25.380;2023-03-03T16:53:05;98335.22;;;8.45;92.21
40850;BME280;26571;41.610;25.380;2023-03-03T17:01:28;98353.28;;;8.31;93.54
40850;BME280;26571;41.610;25.380;2023-03-03T17:04:00;98333.88;;;8.23;93.40
40850;BME280;26571;41.610;25.380;2023-03-03T17:06:39;98352.94;;;8.34;93.16
40850;BME280;26571;41.610;25.380;2023-03-03T17:09:12;98357.53;;;8.32;93.33
40850;BME280;26571;41.610;25.380;2023-03-03T17:14:23;98355.53;;;8.25;93.45
40850;BME280;26571;41.610;25.380;2023-03-03T17:19:54;98368.25;;;8.20;93.91
40850;BME280;26571;41.610;25.380;2023-03-03T17:34:04;98372.69;;;8.20;96.52
40850;BME280;26571;41.610;25.380;2023-03-03T17:45:13;98402.41;;;8.28;96.63
40850;BME280;26571;41.610;25.380;2023-03-03T17:53:39;98393.16;;;8.16;96.51
40850;BME280;26571;41.610;25.380;2023-03-03T17:56:17;98398.31;;;8.26;96.56
40850;BME280;26571;41.610;25.380;2023-03-03T17:59:08;98398.22;;;8.36;96.40
40850;BME280;26571;41.610;25.380;2023-03-03T18:05:03;98398.81;;;8.29;96.64
40850;BME280;26571;41.610;25.380;2023-03-03T18:07:44;98403.19;;;8.39;95.74
40850;BME280;26571;41.610;25.380;2023-03-03T18:21:01;98417.88;;;8.32;97.40
40850;BME280;26571;41.610;25.380;2023-03-03T18:23:33;98428.34;;;8.32;97.51
40850;BME280;26571;41.610;25.380;2023-03-03T18:26:01;98425.72;;;8.32;98.08
40850;BME280;26571;41.610;25.380;2023-03-03T18:28:49;98420.50;;;8.32;97.74
40850;BME280;26571;41.610;25.380;2023-03-03T18:34:39;98420.16;;;8.35;97.66
40850;BME280;26571;41.610;25.380;2023-03-03T18:42:34;98428.75;;;8.37;98.47
40850;BME280;26571;41.610;25.380;2023-03-03T18:48:00;98428.03;;;8.35;98.24
40850;BME280;26571;41.610;25.380;2023-03-03T18:55:44;98415.91;;;8.34;97.92
40850;BME280;26571;41.610;25.380;2023-03-03T19:00:48;98421.59;;;8.29;97.58
40850;BME280;26571;41.610;25.380;2023-03-03T19:03:31;98306.56;;;7.64;97.13
40850;BME280;26571;41.610;25.380;2023-03-03T19:05:57;98394.72;;;8.09;98.11
40850;BME280;26571;41.610;25.380;2023-03-03T19:08:41;98395.09;;;8.14;98.18
40850;BME280;26571;41.610;25.380;2023-03-03T19:16:44;98427.66;;;8.29;98.46
40850;BME280;26571;41.610;25.380;2023-03-03T19:19:34;98424.00;;;8.22;98.76
40850;BME280;26571;41.610;25.380;2023-03-03T19:22:31;98423.56;;;8.27;99.12
40850;BME280;26571;41.610;25.380;2023-03-03T19:27:42;98436.22;;;8.32;98.76